Time;durP1;ratioP1;P1;durP2;ratioP2;P2;SDS_P1;SDS_P2;PMS_P1;PMS_P2;Temp;Humidity;BMP_temperature;BMP_pressure;BME280_temperature;BME280_humidity;BME280_pressure;Samples;Min_cycle;Max_cycle;Signal;HPM_P1;HPM_P2
2024/02/03 00:01:56;;;;;;;5.47;3.13;;;8.60;99.90;8.40;100921.00;;;;4889339;28;111756;-66
2024/02/03 00:04:22;;;;;;;6.90;3.17;;;8.60;99.90;8.40;100921.00;;;;4888584;28;110106;-67
2024/02/03 00:06:47;;;;;;;8.30;3.40;;;8.60;99.90;8.30;100915.00;;;;4893613;28;93796;-66
2024/02/03 00:09:13;;;;;;;4.83;2.77;;;8.50;99.90;8.30;100916.00;;;;4889113;28;123236;-67
2024/02/03 00:11:39;;;;;;;8.53;3.93;;;8.40;99.90;8.20;100916.00;;;;4889575;28;121085;-67
2024/02/03 00:14:04;;;;;;;3.30;2.63;;;8.30;99.90;8.10;100908.00;;;;4888242;28;109258;-67
2024/02/03 00:16:30;;;;;;;5.33;3.03;;;8.30;99.90;8.10;100918.00;;;;4892505;28;93275;-66
2024/02/03 00:18:56;;;;;;;4.73;2.90;;;8.30;99.90;8.10;100918.00;;;;4891157;28;93099;-66
2024/02/03 00:21:22;;;;;;;7.97;3.70;;;8.30;99.90;8.10;100938.00;;;;4889011;28;93899;-67
2024/02/03 00:23:47;;;;;;;7.30;4.00;;;8.20;99.90;8.10;100933.00;;;;4892315;28;92232;-67
2024/02/03 00:26:13;;;;;;;5.57;3.60;;;8.20;99.90;8.10;100930.00;;;;4892163;28;109092;-66
2024/02/03 00:28:39;;;;;;;5.77;3.17;;;8.20;99.90;8.10;100940.00;;;;4888854;28;122257;-67
2024/02/03 00:31:05;;;;;;;8.97;3.37;;;8.20;99.90;8.10;100930.00;;;;4889443;28;121899;-67
2024/02/03 00:33:31;;;;;;;6.17;3.50;;;7.60;99.90;8.20;100927.00;;;;4889041;28;93095;-67
2024/02/03 00:35:57;;;;;;;6.67;2.87;;;8.30;99.90;8.20;100911.00;;;;4890622;28;108961;-66
2024/02/03 00:38:22;;;;;;;5.73;3.63;;;8.30;99.90;8.20;100921.00;;;;4889902;28;122632;-67
2024/02/03 00:40:48;;;;;;;7.23;3.43;;;8.30;99.90;8.20;100915.00;;;;4889112;28;121605;-66
2024/02/03 00:43:17;;;;;;;4.53;2.57;;;8.30;99.90;8.20;100918.00;;;;4888008;28;109651;-66
2024/02/03 00:45:43;;;;;;;7.97;3.30;;;8.40;99.90;8.30;100917.00;;;;4888397;28;93275;-67
2024/02/03 00:48:09;;;;;;;4.77;3.20;;;8.40;99.90;8.30;100915.00;;;;4891280;28;93442;-68
2024/02/03 00:50:35;;;;;;;4.03;2.87;;;8.40;99.90;8.30;100910.00;;;;4889605;28;92997;-68
2024/02/03 00:53:01;;;;;;;4.17;3.10;;;8.50;99.90;8.30;100910.00;;;;4887415;28;110558;-66
2024/02/03 00:55:26;;;;;;;7.47;3.37;;;8.40;99.90;8.40;100918.00;;;;4890852;28;102845;-67
2024/02/03 00:57:52;;;;;;;3.13;2.27;;;8.40;99.90;8.40;100916.00;;;;4902676;28;121087;-67
2024/02/03 01:00:20;;;;;;;5.17;3.30;;;8.50;99.90;8.40;100912.00;;;;4903134;28;92875;-66
2024/02/03 01:02:45;;;;;;;4.50;3.03;;;8.50;99.90;8.40;100923.00;;;;4890030;28;93188;-67
2024/02/03 01:05:11;;;;;;;7.83;3.37;;;8.60;99.90;8.50;100927.00;;;;4888450;28;107749;-67
2024/02/03 01:07:37;;;;;;;5.07;3.03;;;8.60;99.90;8.50;100923.00;;;;4889034;28;123384;-66
2024/02/03 01:10:03;;;;;;;5.40;2.87;;;8.50;99.90;8.60;100932.00;;;;4887138;28;93287;-67
2024/02/03 01:12:29;;;;;;;5.70;2.60;;;8.70;99.90;8.60;100927.00;;;;4888769;28;98378;-67
2024/02/03 01:14:54;;;;;;;4.83;2.70;;;8.70;99.90;8.60;100934.00;;;;4892664;28;109270;-67
2024/02/03 01:17:20;;;;;;;5.20;2.57;;;8.70;99.90;8.70;100911.00;;;;4887526;28;122937;-67
2024/02/03 01:19:46;;;;;;;5.97;2.97;;;8.80;99.90;8.70;100932.00;;;;4885396;28;120050;-68
2024/02/03 01:22:12;;;;;;;9.57;2.77;;;8.80;99.90;8.70;100938.00;;;;4888326;28;110399;-67
2024/02/03 01:24:37;;;;;;;3.77;2.63;;;8.80;99.90;8.80;100931.00;;;;4888620;28;108124;-66
2024/02/03 01:27:03;;;;;;;4.73;2.57;;;8.80;99.90;8.80;100939.00;;;;4888503;28;122003;-66
2024/02/03 01:29:29;;;;;;;4.23;2.73;;;8.80;99.90;8.80;100934.00;;;;4889471;28;94775;-67
2024/02/03 01:31:55;;;;;;;5.17;2.90;;;8.90;99.90;8.80;100908.00;;;;4887376;28;110235;-66
2024/02/03 01:34:20;;;;;;;7.87;3.33;;;8.90;99.90;8.80;100910.00;;;;4891541;28;108190;-68
2024/02/03 01:36:46;;;;;;;3.70;2.93;;;9.00;99.90;8.90;100915.00;;;;4888104;28;122199;-68
2024/02/03 01:39:12;;;;;;;7.30;3.53;;;9.00;99.90;8.90;100936.00;;;;4901698;28;92993;-67
2024/02/03 01:41:38;;;;;;;7.23;3.70;;;9.00;99.90;9.00;100928.00;;;;4888424;28;93116;-66
2024/02/03 01:44:04;;;;;;;5.07;3.13;;;9.10;99.90;9.00;100921.00;;;;4887468;28;109529;-66
2024/02/03 01:46:30;;;;;;;7.03;3.37;;;9.10;99.90;9.00;100920.00;;;;4887877;28;123017;-66
2024/02/03 01:48:56;;;;;;;6.17;3.13;;;9.10;99.90;9.00;100902.00;;;;4889294;28;93319;-67
2024/02/03 01:51:23;;;;;;;2.53;2.23;;;9.00;99.90;9.00;100904.00;;;;4889464;28;93045;-66
2024/02/03 01:53:49;;;;;;;5.43;3.17;;;9.10;99.90;9.00;100913.00;;;;4892458;28;97903;-67
2024/02/03 01:56:17;;;;;;;5.50;2.87;;;9.10;99.90;9.00;100904.00;;;;4886917;28;123125;-67
2024/02/03 01:58:42;;;;;;;5.07;3.00;;;9.10;99.90;9.00;100907.00;;;;4889326;28;93288;-67
2024/02/03 02:01:10;;;;;;;4.50;3.47;;;9.20;99.90;9.10;100903.00;;;;4888825;28;93115;-67
2024/02/03 02:03:36;;;;;;;3.73;3.07;;;9.20;99.90;9.10;100905.00;;;;4887811;28;99839;-68
2024/02/03 02:06:02;;;;;;;3.70;3.33;;;9.20;99.90;9.10;100914.00;;;;4889009;28;94348;-66
2024/02/03 02:08:36;;;;;;;4.33;3.07;;;9.20;99.90;9.10;100912.00;;;;4890424;28;95075;-66
2024/02/03 02:11:04;;;;;;;6.47;3.10;;;9.20;99.90;9.10;100911.00;;;;4891001;28;92970;-67
2024/02/03 02:13:30;;;;;;;4.67;3.00;;;9.30;99.90;9.10;100913.00;;;;4892825;28;92900;-66
2024/02/03 02:15:56;;;;;;;6.90;2.87;;;9.20;99.90;9.10;100921.00;;;;4892151;28;93879;-68
2024/02/03 02:18:24;;;;;;;5.40;3.40;;;9.10;99.90;9.10;100909.00;;;;4890195;28;121708;-67
2024/02/03 02:20:50;;;;;;;6.63;3.20;;;9.20;99.90;9.10;100916.00;;;;4905288;28;93040;-67
2024/02/03 02:23:15;;;;;;;10.20;3.73;;;9.20;99.90;9.10;100901.00;;;;4904397;28;109893;-68
2024/02/03 02:25:41;;;;;;;4.03;2.97;;;9.20;99.90;9.00;100907.00;;;;4891508;28;120370;-66
2024/02/03 02:28:07;;;;;;;4.00;3.60;;;9.20;99.90;9.00;100895.00;;;;4888791;28;121652;-67
2024/02/03 02:30:32;;;;;;;5.37;3.50;;;9.10;99.90;9.00;100898.00;;;;4892679;28;110394;-67
2024/02/03 02:33:00;;;;;;;5.87;3.53;;;9.20;99.90;9.00;100908.00;;;;4890530;28;109325;-66
2024/02/03 02:35:25;;;;;;;7.97;3.80;;;9.10;99.90;9.00;100896.00;;;;4891731;28;112593;-67
2024/02/03 02:37:52;;;;;;;6.20;3.33;;;9.10;99.90;9.00;100897.00;;;;4891557;28;112397;-66
2024/02/03 02:40:18;;;;;;;7.07;3.53;;;9.10;99.90;9.00;100897.00;;;;4903030;28;93237;-67
2024/02/03 02:42:44;;;;;;;5.70;3.20;;;9.10;99.90;9.00;100892.00;;;;4891401;28;96798;-67
2024/02/03 02:45:10;;;;;;;4.93;3.57;;;9.10;99.90;9.00;100893.00;;;;4890555;28;123221;-66
2024/02/03 02:47:36;;;;;;;4.23;3.33;;;9.10;99.90;9.00;100890.00;;;;4892519;28;115459;-66
2024/02/03 02:50:03;;;;;;;8.93;3.53;;;9.10;99.90;8.90;100899.00;;;;4905625;28;92236;-66
2024/02/03 02:52:29;;;;;;;8.63;4.07;;;9.20;99.90;8.90;100905.00;;;;4892118;28;93002;-67
2024/02/03 02:54:56;;;;;;;7.37;4.10;;;9.10;99.90;8.90;100904.00;;;;4891003;28;123874;-66
2024/02/03 02:57:22;;;;;;;7.97;3.17;;;9.00;99.90;8.90;100902.00;;;;4890268;28;93717;-66
2024/02/03 02:59:48;;;;;;;9.07;4.40;;;9.00;99.90;8.90;100905.00;;;;4891364;28;101150;-66
2024/02/03 03:02:13;;;;;;;5.87;3.53;;;9.40;99.90;8.90;100899.00;;;;4890502;28;92885;-66
2024/02/03 03:04:39;;;;;;;6.93;3.83;;;9.00;99.90;8.90;100902.00;;;;4892990;28;110155;-67
2024/02/03 03:07:05;;;;;;;6.10;3.47;;;9.00;99.90;8.90;100903.00;;;;4889684;28;122679;-67
2024/02/03 03:09:30;;;;;;;5.40;3.43;;;9.00;99.90;8.90;100914.00;;;;4893153;28;96734;-67
2024/02/03 03:11:56;;;;;;;6.37;3.90;;;9.00;99.90;8.90;100913.00;;;;4891459;28;92871;-67
2024/02/03 03:14:22;;;;;;;5.50;3.90;;;9.10;99.90;8.90;100918.00;;;;4887679;28;122832;-67
2024/02/03 03:16:52;;;;;;;8.63;4.13;;;9.10;99.90;8.90;100911.00;;;;4887929;28;122724;-66
2024/02/03 03:19:17;;;;;;;8.87;4.30;;;9.10;99.90;8.90;100899.00;;;;4890071;28;110824;-67
2024/02/03 03:21:43;;;;;;;3.90;3.00;;;9.00;99.90;8.90;100900.00;;;;4888042;28;107416;-66
2024/02/03 03:24:09;;;;;;;6.97;3.50;;;9.10;99.90;8.90;100909.00;;;;4892067;28;122629;-67
2024/02/03 03:26:44;;;;;;;8.37;3.73;;;9.00;99.90;8.90;100888.00;;;;4890016;28;122018;-67
2024/02/03 03:29:11;;;;;;;6.03;3.80;;;9.00;99.90;8.90;100911.00;;;;4891783;28;109509;-68
2024/02/03 03:31:38;;;;;;;5.70;3.90;;;9.00;99.90;8.90;100900.00;;;;4890380;28;93050;-66
2024/02/03 03:34:03;;;;;;;5.57;4.03;;;9.00;99.90;8.90;100905.00;;;;4890468;28;103222;-66
2024/02/03 03:36:29;;;;;;;5.53;3.23;;;9.00;99.90;8.90;100897.00;;;;4889457;28;115666;-66
2024/02/03 03:38:55;;;;;;;6.77;4.20;;;8.40;99.90;8.90;100899.00;;;;4890512;28;110809;-66
2024/02/03 03:41:20;;;;;;;10.87;4.13;;;9.00;99.90;8.90;100902.00;;;;4890719;28;107610;-67
2024/02/03 03:43:48;;;;;;;4.67;3.30;;;9.00;99.90;8.90;100896.00;;;;4890394;28;122990;-66
2024/02/03 03:46:14;;;;;;;6.10;3.90;;;9.10;99.90;8.90;100906.00;;;;4890279;28;94754;-66
2024/02/03 03:48:39;;;;;;;8.57;4.70;;;9.00;99.90;9.00;100915.00;;;;4890194;28;111214;-67
2024/02/03 03:51:05;;;;;;;6.83;3.97;;;9.10;99.90;9.00;100911.00;;;;4889143;28;110463;-66
2024/02/03 03:53:31;;;;;;;4.47;3.20;;;9.10;99.90;9.00;100919.00;;;;4889945;28;123240;-68
2024/02/03 03:55:57;;;;;;;6.37;3.33;;;9.50;99.90;9.00;100912.00;;;;4888788;28;121921;-66
2024/02/03 03:58:23;;;;;;;6.27;3.73;;;9.20;99.90;9.10;100903.00;;;;4889852;28;92928;-66
2024/02/03 04:00:49;;;;;;;5.00;3.20;;;9.20;99.90;9.10;100915.00;;;;4890485;28;109857;-68
2024/02/03 04:03:14;;;;;;;5.33;3.17;;;9.20;99.90;9.10;100913.00;;;;4892504;28;92164;-67
2024/02/03 04:05:40;;;;;;;4.53;3.77;;;9.20;99.90;9.10;100904.00;;;;4891797;28;121783;-67
2024/02/03 04:08:06;;;;;;;6.03;3.73;;;9.20;99.90;9.20;100907.00;;;;4890380;28;92808;-66
2024/02/03 04:10:32;;;;;;;5.87;3.40;;;9.30;99.90;9.20;100904.00;;;;4889275;28;109000;-66
2024/02/03 04:12:58;;;;;;;5.67;3.53;;;9.30;99.90;9.20;100908.00;;;;4888529;28;122009;-66
2024/02/03 04:15:23;;;;;;;5.17;3.30;;;9.30;99.90;9.20;100905.00;;;;4891086;28;121496;-66
2024/02/03 04:17:50;;;;;;;4.93;3.63;;;9.30;99.90;9.20;100904.00;;;;4890183;28;110528;-66
2024/02/03 04:20:16;;;;;;;5.43;2.90;;;9.30;99.90;9.20;100887.00;;;;4891093;28;92904;-67
2024/02/03 04:22:42;;;;;;;5.13;3.40;;;9.30;99.90;9.20;100888.00;;;;4888254;28;123740;-66
2024/02/03 04:25:07;;;;;;;5.20;3.70;;;9.30;99.90;9.30;100895.00;;;;4891307;28;119459;-67
2024/02/03 04:27:33;;;;;;;5.03;3.33;;;9.30;99.90;9.30;100890.00;;;;4891392;28;91913;-67
2024/02/03 04:29:59;;;;;;;4.50;3.47;;;9.40;99.90;9.30;100884.00;;;;4890658;28;108961;-67
2024/02/03 04:32:25;;;;;;;3.47;2.67;;;9.40;99.90;9.30;100898.00;;;;4890839;28;123005;-66
2024/02/03 04:34:50;;;;;;;6.80;3.03;;;9.50;99.90;9.30;100897.00;;;;4888146;28;124829;-66
2024/02/03 04:37:16;;;;;;;7.83;3.17;;;9.40;99.90;9.30;100894.00;;;;4889631;28;110794;-66
2024/02/03 04:39:42;;;;;;;8.40;3.37;;;9.50;99.90;9.30;100884.00;;;;4888590;28;107237;-66
2024/02/03 04:42:09;;;;;;;5.30;3.20;;;9.40;99.90;9.40;100879.00;;;;4901067;28;124405;-66
2024/02/03 04:44:34;;;;;;;4.70;3.30;;;9.60;99.90;9.40;100878.00;;;;4890590;28;94168;-66
2024/02/03 04:47:00;;;;;;;5.20;3.23;;;9.50;99.90;9.40;100872.00;;;;4890888;28;109491;-67
2024/02/03 04:49:26;;;;;;;6.17;3.07;;;9.50;99.90;9.50;100868.00;;;;4889558;28;93144;-66
2024/02/03 04:51:52;;;;;;;8.77;3.30;;;9.50;99.90;9.50;100871.00;;;;4890256;28;121642;-67
2024/02/03 04:54:18;;;;;;;5.77;3.17;;;9.60;99.90;9.50;100865.00;;;;4892692;28;93046;-67
2024/02/03 04:56:44;;;;;;;5.80;3.13;;;9.60;99.90;9.50;100869.00;;;;4889288;28;93204;-67
2024/02/03 04:59:10;;;;;;;5.57;2.73;;;9.60;99.90;9.50;100852.00;;;;4889650;28;93733;-67
2024/02/03 05:01:36;;;;;;;4.90;2.83;;;10.20;99.90;9.50;100850.00;;;;4889067;28;122305;-67
2024/02/03 05:04:02;;;;;;;6.20;3.83;;;9.60;99.90;9.50;100853.00;;;;4889591;28;93405;-67
2024/02/03 05:06:28;;;;;;;5.13;2.93;;;9.60;99.90;9.50;100853.00;;;;4888169;28;102714;-67
2024/02/03 05:08:58;;;;;;;3.90;2.53;;;9.70;99.90;9.60;100853.00;;;;4890165;28;93006;-67
2024/02/03 05:11:25;;;;;;;6.70;3.30;;;9.70;99.90;9.60;100851.00;;;;4874353;28;93249;-66
2024/02/03 05:13:51;;;;;;;3.23;2.30;;;9.70;99.90;9.60;100849.00;;;;4890224;28;95343;-67
2024/02/03 05:16:17;;;;;;;4.27;3.17;;;9.70;99.90;9.60;100864.00;;;;4890685;28;101997;-66
2024/02/03 05:18:42;;;;;;;4.50;2.73;;;9.70;99.90;9.60;100868.00;;;;4889973;28;108368;-66
2024/02/03 05:21:08;;;;;;;4.80;2.80;;;9.70;99.90;9.60;100865.00;;;;4888399;28;122694;-66
2024/02/03 05:23:34;;;;;;;4.03;2.47;;;9.70;99.90;9.60;100873.00;;;;4889250;28;121700;-66
2024/02/03 05:25:59;;;;;;;4.57;3.23;;;9.70;99.90;9.70;100874.00;;;;4891058;28;110790;-67
2024/02/03 05:28:25;;;;;;;4.07;2.23;;;9.70;99.90;9.70;100878.00;;;;4889905;28;93131;-67
2024/02/03 05:30:57;;;;;;;4.67;2.57;;;9.80;99.90;9.70;100883.00;;;;4888518;28;122644;-67
2024/02/03 05:33:22;;;;;;;4.13;2.33;;;9.80;99.90;9.70;100881.00;;;;4890304;28;122531;-66
2024/02/03 05:35:48;;;;;;;3.07;2.27;;;9.80;99.90;9.70;100876.00;;;;4893776;28;109187;-67
2024/02/03 05:38:14;;;;;;;4.47;2.70;;;9.80;99.90;9.70;100872.00;;;;4887350;28;108480;-66
2024/02/03 05:40:39;;;;;;;4.47;2.70;;;9.80;99.90;9.70;100870.00;;;;4891176;28;93546;-67
2024/02/03 05:43:05;;;;;;;4.50;2.73;;;9.80;99.90;9.70;100872.00;;;;4892154;28;121836;-67
2024/02/03 05:45:30;;;;;;;2.87;2.10;;;9.80;99.90;9.70;100877.00;;;;4890597;28;105613;-66
2024/02/03 05:47:56;;;;;;;3.27;1.80;;;9.80;99.90;9.80;100872.00;;;;4892985;28;110035;-66
2024/02/03 05:50:22;;;;;;;5.20;2.80;;;9.90;99.90;9.80;100871.00;;;;4891815;28;122438;-67
2024/02/03 05:52:47;;;;;;;4.03;2.30;;;9.80;99.90;9.80;100865.00;;;;4891423;28;123743;-66
2024/02/03 05:55:13;;;;;;;6.20;2.37;;;9.90;99.90;9.80;100869.00;;;;4893752;28;93059;-66
2024/02/03 05:57:53;;;;;;;4.77;2.80;;;9.90;99.90;9.80;100862.00;;;;4891379;28;94070;-67
2024/02/03 06:00:20;;;;;;;7.43;3.23;;;9.90;99.90;9.80;100868.00;;;;4891619;28;112799;-67
2024/02/03 06:02:46;;;;;;;4.37;2.90;;;9.80;99.90;9.70;100854.00;;;;4891305;28;122448;-66
2024/02/03 06:05:13;;;;;;;3.53;2.00;;;9.80;99.90;9.80;100871.00;;;;4889966;28;100240;-66
2024/02/03 06:07:39;;;;;;;2.60;2.00;;;9.80;99.90;9.80;100867.00;;;;4886647;28;93809;-67
2024/02/03 06:10:06;;;;;;;4.10;2.30;;;9.80;99.90;9.80;100868.00;;;;4886468;28;121425;-67
2024/02/03 06:12:32;;;;;;;4.73;3.27;;;9.80;99.90;9.80;100875.00;;;;4887547;28;97553;-66
2024/02/03 06:14:57;;;;;;;3.63;2.40;;;9.80;99.90;9.80;100882.00;;;;4893629;28;93190;-67
2024/02/03 06:17:23;;;;;;;3.00;2.30;;;9.90;99.90;9.80;100876.00;;;;4889223;28;106266;-67
2024/02/03 06:19:50;;;;;;;2.60;1.87;;;9.90;99.90;9.80;100886.00;;;;4887458;28;122166;-66
2024/02/03 06:22:15;;;;;;;4.03;2.43;;;9.90;99.90;9.80;100880.00;;;;4898965;28;98677;-66
2024/02/03 06:24:41;;;;;;;3.43;2.33;;;9.80;99.90;9.80;100881.00;;;;4890048;28;111771;-67
2024/02/03 06:27:07;;;;;;;4.27;2.47;;;9.90;99.90;9.70;100865.00;;;;4888658;28;109502;-66
2024/02/03 06:29:32;;;;;;;4.50;2.40;;;9.90;99.90;9.70;100885.00;;;;4888038;28;120783;-67
2024/02/03 06:31:58;;;;;;;4.23;2.13;;;9.80;99.90;9.80;100884.00;;;;4888258;28;121034;-66
2024/02/03 06:34:24;;;;;;;5.13;2.53;;;9.80;99.90;9.70;100884.00;;;;4887165;28;108315;-67
2024/02/03 06:36:50;;;;;;;3.37;2.40;;;9.80;99.90;9.70;100895.00;;;;4888591;28;93810;-67
2024/02/03 06:39:16;;;;;;;3.30;2.37;;;9.80;99.90;9.70;100900.00;;;;4889909;28;94293;-65
2024/02/03 06:41:42;;;;;;;2.23;2.00;;;9.80;99.90;9.70;100889.00;;;;4890436;28;122285;-67
2024/02/03 06:44:09;;;;;;;4.37;2.83;;;9.90;99.90;9.70;100897.00;;;;4888251;28;93273;-67
2024/02/03 06:46:35;;;;;;;2.50;1.90;;;9.80;99.90;9.70;100914.00;;;;4889976;28;96805;-66
2024/02/03 06:49:01;;;;;;;2.73;2.13;;;9.90;99.90;9.70;100888.00;;;;4888026;28;122573;-65
2024/02/03 06:51:26;;;;;;;2.60;2.30;;;9.80;99.90;9.70;100889.00;;;;4887344;28;115220;-66
2024/02/03 06:53:52;;;;;;;2.80;2.13;;;9.80;99.90;9.70;100889.00;;;;4889032;28;110745;-66
2024/02/03 06:56:17;;;;;;;3.50;2.20;;;9.80;99.90;9.70;100884.00;;;;4887503;28;107212;-67
2024/02/03 06:58:43;;;;;;;2.63;1.83;;;9.80;99.90;9.70;100892.00;;;;4887594;28;122308;-67
2024/02/03 07:01:09;;;;;;;24.77;11.87;;;9.80;99.90;9.70;100900.00;;;;4888770;28;121239;-66
2024/02/03 07:03:34;;;;;;;11.50;4.70;;;9.80;99.90;9.70;100885.00;;;;4885760;28;111904;-66
2024/02/03 07:06:00;;;;;;;7.33;3.33;;;9.80;99.90;9.70;100907.00;;;;4890777;28;92914;-67
2024/02/03 07:08:26;;;;;;;7.03;3.00;;;9.80;99.90;9.70;100897.00;;;;4886988;28;124815;-67
2024/02/03 07:10:51;;;;;;;6.87;3.40;;;9.80;99.90;9.70;100902.00;;;;4887905;28;120274;-68
2024/02/03 07:13:17;;;;;;;8.30;3.07;;;9.80;99.90;9.70;100922.00;;;;4893812;28;108633;-67
2024/02/03 07:15:43;;;;;;;9.23;4.47;;;9.80;99.90;9.70;100922.00;;;;4891411;28;93454;-66
2024/02/03 07:18:09;;;;;;;3.90;2.73;;;9.80;99.90;9.70;100919.00;;;;4888891;28;92310;-66
2024/02/03 07:20:34;;;;;;;6.90;2.93;;;9.80;99.90;9.80;100915.00;;;;4886376;28;121474;-65
2024/02/03 07:23:00;;;;;;;8.13;3.30;;;9.80;99.90;9.80;100912.00;;;;4887222;28;110751;-66
2024/02/03 07:25:26;;;;;;;4.33;2.83;;;9.90;99.90;9.80;100923.00;;;;4885627;28;108094;-66
2024/02/03 07:27:51;;;;;;;5.70;3.17;;;9.90;99.90;9.80;100922.00;;;;4886053;28;122587;-65
2024/02/03 07:30:17;;;;;;;6.03;2.87;;;9.80;99.90;9.80;100922.00;;;;4885799;28;116832;-67
2024/02/03 07:32:43;;;;;;;4.77;2.63;;;9.90;99.90;9.80;100922.00;;;;4888442;28;110387;-65
2024/02/03 07:35:10;;;;;;;3.40;2.27;;;9.90;99.90;9.80;100918.00;;;;4884690;28;108637;-67
2024/02/03 07:37:36;;;;;;;7.33;2.83;;;9.90;99.90;9.80;100910.00;;;;4887551;28;114973;-65
2024/02/03 07:40:01;;;;;;;3.73;2.17;;;10.00;99.90;9.90;100910.00;;;;4885573;28;120915;-66
2024/02/03 07:42:27;;;;;;;4.53;2.57;;;9.90;99.90;9.90;100907.00;;;;4887106;28;105773;-65
2024/02/03 07:44:53;;;;;;;6.53;3.70;;;9.90;99.90;9.90;100921.00;;;;4889054;28;93197;-65
2024/02/03 07:47:18;;;;;;;3.93;1.83;;;10.00;99.90;9.90;100920.00;;;;4885262;28;123815;-66
2024/02/03 07:49:44;;;;;;;4.43;3.03;;;10.00;99.90;10.00;100915.00;;;;4898206;28;122630;-65
2024/02/03 07:52:10;;;;;;;2.40;2.10;;;10.10;99.90;10.00;100917.00;;;;4887592;28;93050;-66
2024/02/03 07:54:35;;;;;;;8.20;2.97;;;10.10;99.90;10.10;100913.00;;;;4886729;28;106717;-66
2024/02/03 07:57:01;;;;;;;2.50;1.70;;;10.20;99.90;10.10;100909.00;;;;4885418;28;123060;-66
2024/02/03 07:59:27;;;;;;;3.20;2.03;;;10.20;99.90;10.20;100916.00;;;;4886146;28;108939;-66
2024/02/03 08:01:53;;;;;;;2.57;1.80;;;10.20;99.90;10.20;100895.00;;;;4887448;28;93108;-67
2024/02/03 08:04:19;;;;;;;5.73;2.47;;;10.20;99.90;10.20;100913.00;;;;4885120;28;92933;-66
2024/02/03 08:06:45;;;;;;;2.90;1.73;;;10.30;99.90;10.20;100923.00;;;;4887190;28;120323;-66
2024/02/03 08:09:10;;;;;;;2.67;2.13;;;10.30;99.90;10.20;100911.00;;;;4886529;28;93016;-65
2024/02/03 08:11:36;;;;;;;3.57;1.90;;;10.30;99.90;10.20;100918.00;;;;4886078;28;110565;-65
2024/02/03 08:14:02;;;;;;;4.47;2.00;;;10.30;99.90;10.30;100917.00;;;;4888235;28;108350;-65
2024/02/03 08:16:27;;;;;;;3.70;2.57;;;10.40;99.90;10.30;100922.00;;;;4884832;28;120584;-66
2024/02/03 08:18:53;;;;;;;4.37;1.93;;;10.40;99.90;10.40;100934.00;;;;4886981;28;93099;-66
2024/02/03 08:21:19;;;;;;;7.33;2.40;;;10.40;99.90;10.40;100924.00;;;;4888545;28;110463;-66
2024/02/03 08:23:44;;;;;;;4.47;1.70;;;10.50;99.90;10.50;100923.00;;;;4886944;28;108442;-65
2024/02/03 08:26:12;;;;;;;1.47;1.33;;;10.50;99.90;10.50;100913.00;;;;4886617;28;93558;-66
2024/02/03 08:28:37;;;;;;;2.80;1.90;;;10.60;99.90;10.60;100908.00;;;;4887403;28;93322;-65
2024/02/03 08:31:03;;;;;;;3.10;1.83;;;10.60;99.90;10.60;100912.00;;;;4887877;28;110697;-65
2024/02/03 08:33:31;;;;;;;3.87;1.67;;;10.60;99.90;10.60;100922.00;;;;4890160;28;92895;-66
2024/02/03 08:35:57;;;;;;;2.70;1.53;;;10.70;99.90;10.60;100910.00;;;;4886332;28;94674;-65
2024/02/03 08:38:23;;;;;;;2.10;1.70;;;10.70;99.90;10.60;100925.00;;;;4888112;28;93746;-65
2024/02/03 08:40:50;;;;;;;2.63;1.83;;;10.70;99.90;10.50;100913.00;;;;4890124;28;110416;-65
2024/02/03 08:43:15;;;;;;;2.63;1.60;;;10.60;99.90;10.50;100931.00;;;;4885993;28;92949;-65
2024/02/03 08:45:42;;;;;;;4.53;1.57;;;10.60;99.90;10.50;100924.00;;;;4884386;28;108183;-65
2024/02/03 08:48:08;;;;;;;1.70;1.50;;;10.60;99.90;10.40;100924.00;;;;4886568;28;94365;-66
2024/02/03 08:50:34;;;;;;;3.30;1.43;;;10.50;99.90;10.30;100926.00;;;;4885886;28;110663;-65
2024/02/03 08:52:59;;;;;;;2.80;1.20;;;10.50;99.90;10.30;100938.00;;;;4884419;28;109377;-66
2024/02/03 08:55:25;;;;;;;3.50;1.67;;;10.40;99.90;10.20;100926.00;;;;4886810;28;93709;-65
2024/02/03 08:57:50;;;;;;;3.97;2.07;;;10.40;99.90;10.20;100914.00;;;;4885642;28;121718;-65
2024/02/03 09:00:17;;;;;;;2.20;1.70;;;10.40;99.90;10.20;100921.00;;;;4885118;28;110574;-65
2024/02/03 09:02:42;;;;;;;2.87;1.47;;;10.30;99.90;10.20;100932.00;;;;4885124;28;94157;-65
2024/02/03 09:05:08;;;;;;;2.43;1.60;;;10.40;99.90;10.20;100929.00;;;;4886918;28;93975;-65
2024/02/03 09:07:34;;;;;;;1.63;1.20;;;10.30;99.90;10.20;100927.00;;;;4881788;28;101874;-65
2024/02/03 09:10:04;;;;;;;1.37;0.97;;;10.30;99.90;10.30;100935.00;;;;4885323;28;93119;-65
2024/02/03 09:12:29;;;;;;;1.90;1.30;;;10.30;99.90;10.30;100936.00;;;;4885245;28;96933;-65
2024/02/03 09:14:55;;;;;;;1.20;1.00;;;10.40;99.90;10.40;100932.00;;;;4886548;28;123395;-66
2024/02/03 09:17:21;;;;;;;1.93;1.47;;;10.40;99.90;10.40;100929.00;;;;4884937;28;99110;-65
2024/02/03 09:19:48;;;;;;;1.50;1.33;;;10.40;99.90;10.40;100947.00;;;;4884537;28;110791;-65
2024/02/03 09:22:14;;;;;;;1.50;1.30;;;10.50;99.90;10.50;100951.00;;;;4886205;28;93280;-67
2024/02/03 09:24:41;;;;;;;1.77;1.40;;;10.50;99.90;10.50;100939.00;;;;4897282;28;93295;-65
2024/02/03 09:27:07;;;;;;;1.37;1.23;;;10.50;99.90;10.50;100949.00;;;;4883867;28;93874;-67
2024/02/03 09:29:33;;;;;;;2.37;1.23;;;10.50;99.90;10.50;100949.00;;;;4885644;28;99850;-65
2024/02/03 09:31:58;;;;;;;2.70;1.43;;;10.60;99.90;10.50;100942.00;;;;4883405;28;102003;-67
2024/02/03 09:34:26;;;;;;;3.23;1.27;;;10.60;99.90;10.50;100929.00;;;;4882583;28;93278;-66
2024/02/03 09:36:54;;;;;;;2.07;1.47;;;10.60;99.90;10.50;100943.00;;;;4883463;28;115047;-67
2024/02/03 09:39:20;;;;;;;2.00;1.07;;;10.60;99.90;10.60;100952.00;;;;4885682;28;110071;-66
2024/02/03 09:41:46;;;;;;;1.83;1.33;;;10.70;99.90;10.60;100951.00;;;;4885259;28;108993;-68
2024/02/03 09:44:12;;;;;;;1.73;1.20;;;10.70;99.90;10.60;100960.00;;;;4883594;28;121188;-66
2024/02/03 09:46:39;;;;;;;2.03;1.20;;;10.60;99.90;10.70;100959.00;;;;4884511;28;120996;-68
2024/02/03 09:49:04;;;;;;;1.40;1.20;;;10.70;99.90;10.70;100960.00;;;;4884578;28;92790;-66
2024/02/03 09:51:31;;;;;;;1.73;0.90;;;10.70;99.90;10.70;100953.00;;;;4886747;28;108561;-67
2024/02/03 09:53:58;;;;;;;1.83;1.20;;;10.70;99.90;10.70;100960.00;;;;4887594;28;93974;-67
2024/02/03 09:56:23;;;;;;;1.77;1.47;;;10.70;99.90;10.70;100975.00;;;;4883032;28;93123;-67
2024/02/03 09:58:49;;;;;;;2.10;0.97;;;10.80;99.90;10.70;100970.00;;;;4883229;28;110764;-66
2024/02/03 10:01:15;;;;;;;3.40;1.93;;;10.80;99.90;10.70;100970.00;;;;4886065;28;92991;-65
2024/02/03 10:03:45;;;;;;;2.33;1.13;;;10.80;99.90;10.70;100975.00;;;;4883619;28;123743;-67
2024/02/03 10:06:13;;;;;;;2.77;1.30;;;10.70;99.90;10.70;100967.00;;;;4884246;28;93177;-67
2024/02/03 10:08:39;;;;;;;8.43;0.93;;;10.80;99.90;10.70;100956.00;;;;4886288;28;92415;-66
2024/02/03 10:11:05;;;;;;;0.90;0.90;;;10.70;99.90;10.70;100972.00;;;;4884772;28;95491;-66
2024/02/03 10:13:32;;;;;;;1.17;0.77;;;11.00;99.90;10.70;100971.00;;;;4884079;28;94262;-66
2024/02/03 10:16:00;;;;;;;2.03;1.23;;;10.80;99.90;10.70;100966.00;;;;4885333;28;94025;-67
2024/02/03 10:18:26;;;;;;;2.03;1.20;;;10.80;99.90;10.70;100958.00;;;;4884731;28;93715;-67
2024/02/03 10:20:51;;;;;;;0.80;0.80;;;10.80;99.90;10.80;100952.00;;;;4884642;28;108846;-67
2024/02/03 10:23:17;;;;;;;1.30;1.17;;;10.90;99.90;10.70;100960.00;;;;4883952;28;122429;-67
2024/02/03 10:25:45;;;;;;;1.43;1.00;;;10.80;99.90;10.80;100968.00;;;;4884264;28;122781;-66
2024/02/03 10:28:11;;;;;;;2.73;1.13;;;10.80;99.90;10.80;100970.00;;;;4885851;28;93219;-66
2024/02/03 10:30:37;;;;;;;2.60;1.23;;;10.80;99.90;10.70;100974.00;;;;4888966;28;93149;-66
2024/02/03 10:33:06;;;;;;;2.40;1.30;;;10.80;99.90;10.70;100980.00;;;;4888812;28;92960;-66
2024/02/03 10:35:37;;;;;;;1.93;1.33;;;10.80;99.90;10.70;100987.00;;;;4888405;28;121965;-66
2024/02/03 10:38:03;;;;;;;1.60;1.43;;;10.80;99.90;10.60;100976.00;;;;4888130;28;92886;-66
2024/02/03 10:40:32;;;;;;;6.03;0.97;;;10.80;99.90;10.60;100975.00;;;;4887482;28;94046;-68
2024/02/03 10:42:58;;;;;;;1.00;0.70;;;10.70;99.90;10.60;100973.00;;;;4889712;28;93083;-66
2024/02/03 10:45:29;;;;;;;1.47;1.13;;;10.70;99.90;10.70;100989.00;;;;4889103;28;122789;-65
2024/02/03 10:47:57;;;;;;;1.30;1.20;;;10.70;99.90;10.60;100998.00;;;;4886877;28;92845;-67